createdAt,value
2017-02-16T00:00:55.434Z,1.7
2017-02-16T00:01:57.406Z,1.7
2017-02-16T00:02:59.868Z,1.6
2017-02-16T00:04:02.339Z,1.6
2017-02-16T00:05:05.311Z,1.6
2017-02-16T00:06:07.787Z,1.6
2017-02-16T00:07:10.105Z,1.6
2017-02-16T00:08:12.573Z,1.6
2017-02-16T00:09:15.035Z,1.6
2017-02-16T00:10:17.519Z,1.6
2017-02-16T00:11:19.977Z,1.6
2017-02-16T00:12:22.279Z,1.6
2017-02-16T00:14:27.484Z,1.6
2017-02-16T00:15:30.452Z,1.6
2017-02-16T00:17:35.355Z,1.6
2017-02-16T00:18:37.815Z,1.6
2017-02-16T00:19:40.279Z,1.6
2017-02-16T00:20:42.745Z,1.6
2017-02-16T00:21:45.213Z,1.6
2017-02-16T00:22:47.689Z,1.6
2017-02-16T00:23:50.165Z,1.6
2017-02-16T00:24:52.629Z,1.6
2017-02-16T00:25:55.116Z,1.6
2017-02-16T00:28:00.491Z,1.6
2017-02-16T00:29:02.966Z,1.5
2017-02-16T00:30:05.422Z,1.5
2017-02-16T00:31:07.718Z,1.5
2017-02-16T00:32:10.691Z,1.5
2017-02-16T00:33:13.005Z,1.5
2017-02-16T00:34:15.322Z,1.5
2017-02-16T00:35:17.609Z,1.5
2017-02-16T00:36:20.570Z,1.5
2017-02-16T00:37:23.031Z,1.5
2017-02-16T00:38:25.495Z,1.5
2017-02-16T00:39:27.961Z,1.5
2017-02-16T00:40:30.423Z,1.5
2017-02-16T00:41:32.887Z,1.5
2017-02-16T00:42:35.695Z,1.5
2017-02-16T00:44:40.562Z,1.5
2017-02-16T00:45:43.042Z,1.5
2017-02-16T00:48:51.335Z,1.5
2017-02-16T00:51:58.117Z,1.5
2017-02-16T00:53:00.576Z,1.5
2017-02-16T00:54:03.046Z,1.5
2017-02-16T00:55:06.029Z,1.5
2017-02-16T00:56:07.858Z,1.5
2017-02-16T00:57:10.835Z,1.5
2017-02-16T00:59:15.734Z,1.5
2017-02-16T01:00:18.194Z,1.5
2017-02-16T01:01:20.505Z,1.5
2017-02-16T01:02:23.482Z,1.4
2017-02-16T01:03:25.946Z,1.4
2017-02-16T01:04:28.406Z,1.4
2017-02-16T01:05:30.863Z,1.4
2017-02-16T01:06:33.318Z,1.4
2017-02-16T01:08:38.184Z,1.4
2017-02-16T01:14:53.675Z,1.4
2017-02-16T01:15:56.131Z,1.3
2017-02-16T01:23:13.361Z,1.3
2017-02-16T01:26:20.808Z,1.3
2017-02-16T01:27:23.779Z,1.3
2017-02-16T01:28:26.235Z,1.3
2017-02-16T01:29:29.046Z,1.3
2017-02-16T01:30:31.008Z,1.3
2017-02-16T01:31:33.464Z,1.3
2017-02-16T01:32:35.922Z,1.3
2017-02-16T01:33:38.883Z,1.3
2017-02-16T01:34:41.358Z,1.3
2017-02-16T01:36:46.221Z,1.3
2017-02-16T01:37:48.688Z,1.3
2017-02-16T01:39:53.396Z,1.3
2017-02-16T01:43:01.175Z,1.3
2017-02-16T01:44:03.633Z,1.3
2017-02-16T01:46:08.844Z,1.3
2017-02-16T01:47:11.826Z,1.3
2017-02-16T01:48:14.321Z,1.3
2017-02-16T02:04:53.901Z,1.2
2017-02-16T02:05:56.359Z,1.2
2017-02-16T02:06:58.821Z,1.2
2017-02-16T02:08:01.118Z,1.2
2017-02-16T02:09:04.100Z,1.2
2017-02-16T02:10:06.402Z,1.2
2017-02-16T02:11:09.205Z,1.2
2017-02-16T02:12:11.662Z,1.2
2017-02-16T02:13:14.152Z,1.2
2017-02-16T02:16:21.429Z,1.1
2017-02-16T02:17:23.909Z,1.2
2017-02-16T02:18:26.709Z,1.1
2017-02-16T02:19:29.185Z,1.2
2017-02-16T02:20:31.646Z,1.1
2017-02-16T02:21:34.110Z,1.1
2017-02-16T02:22:36.597Z,1.1
2017-02-16T02:23:39.073Z,1.1
2017-02-16T02:24:41.536Z,1.1
2017-02-16T02:25:44.015Z,1.1
2017-02-16T02:26:46.474Z,1.1
2017-02-16T02:28:51.852Z,1.1
2017-02-16T02:29:54.315Z,1.1
2017-02-16T02:30:56.794Z,1.1
2017-02-16T02:31:59.793Z,1.1
2017-02-16T02:33:01.759Z,1.1
2017-02-16T02:34:04.220Z,1.1
2017-02-16T02:35:06.684Z,1.1
2017-02-16T02:36:09.144Z,1.1
2017-02-16T02:37:11.638Z,1.1
2017-02-16T02:38:14.099Z,1.1
2017-02-16T02:39:17.587Z,1.1
2017-02-16T02:40:20.074Z,1.1
2017-02-16T02:41:22.033Z,1.1
2017-02-16T02:42:24.518Z,1.1
2017-02-16T02:43:27.516Z,1.1
2017-02-16T02:44:29.495Z,1.1
2017-02-16T02:45:31.965Z,1.1
2017-02-16T02:48:39.078Z,1.1
2017-02-16T02:49:42.058Z,1.1
2017-02-16T02:50:44.535Z,1
2017-02-16T02:51:47.010Z,1.1
2017-02-16T02:52:49.504Z,1
2017-02-16T02:53:51.980Z,1
2017-02-16T02:54:54.454Z,1
2017-02-16T02:55:57.453Z,1
2017-02-16T02:56:59.425Z,1
2017-02-16T02:58:01.905Z,1
2017-02-16T02:59:04.368Z,1
2017-02-16T03:00:07.191Z,1
2017-02-16T03:01:09.660Z,1
2017-02-16T03:02:12.119Z,1
2017-02-16T03:03:14.575Z,1
2017-02-16T03:04:17.040Z,1
2017-02-16T03:05:20.035Z,1
2017-02-16T03:06:22.005Z,1
2017-02-16T03:07:24.464Z,1
2017-02-16T03:08:26.922Z,1
2017-02-16T03:09:29.406Z,1
2017-02-16T03:10:32.366Z,1
2017-02-16T03:11:34.829Z,1
2017-02-16T03:12:37.307Z,1
2017-02-16T03:13:40.308Z,1
2017-02-16T03:15:44.523Z,1
2017-02-16T03:16:46.984Z,1
2017-02-16T03:17:49.839Z,1
2017-02-16T03:18:52.301Z,1
2017-02-16T03:19:54.770Z,1
2017-02-16T03:20:57.233Z,1
2017-02-16T03:21:59.701Z,1
2017-02-16T03:23:02.175Z,1
2017-02-16T03:24:04.645Z,1
2017-02-16T03:26:09.353Z,1
2017-02-16T03:42:49.905Z,1
2017-02-16T03:43:52.893Z,0.9
2017-02-16T03:44:54.874Z,0.9
2017-02-16T03:58:27.360Z,0.9
2017-02-16T04:02:37.538Z,0.9
2017-02-16T04:03:40.534Z,0.9
2017-02-16T04:05:44.905Z,0.9
2017-02-16T04:06:47.373Z,0.9
2017-02-16T04:07:49.853Z,0.9
2017-02-16T04:08:52.835Z,0.9
2017-02-16T04:09:55.294Z,0.9
2017-02-16T04:12:00.159Z,0.9
2017-02-16T04:13:02.648Z,0.9
2017-02-16T04:14:05.123Z,0.9
2017-02-16T04:15:07.599Z,0.8
2017-02-16T04:16:10.069Z,0.8
2017-02-16T04:17:12.884Z,0.8
2017-02-16T04:18:15.186Z,0.8
2017-02-16T04:19:17.682Z,0.8
2017-02-16T04:20:20.142Z,0.8
2017-02-16T04:21:22.602Z,0.8
2017-02-16T04:22:25.606Z,0.8
2017-02-16T04:23:27.428Z,0.8
2017-02-16T04:24:30.390Z,0.8
2017-02-16T04:25:32.696Z,0.8
2017-02-16T04:26:35.172Z,0.8
2017-02-16T04:46:22.928Z,0.8
2017-02-16T04:47:25.388Z,0.8
2017-02-16T04:48:27.857Z,0.8
2017-02-16T04:49:30.328Z,0.8
2017-02-16T04:50:32.785Z,0.8
2017-02-16T04:54:42.812Z,0.8
2017-02-16T05:12:25.698Z,0.7
2017-02-16T05:13:28.175Z,0.7
2017-02-16T05:14:30.656Z,0.7
2017-02-16T05:15:33.128Z,0.7
2017-02-16T05:22:50.358Z,0.7
2017-02-16T05:24:55.737Z,0.7
2017-02-16T05:25:58.195Z,0.7
2017-02-16T05:27:00.653Z,0.7
2017-02-16T05:28:03.117Z,0.7
2017-02-16T05:38:28.236Z,0.7
2017-02-16T05:39:30.699Z,0.6
2017-02-16T05:40:33.160Z,0.7
2017-02-16T05:41:35.625Z,0.7
2017-02-16T05:42:38.089Z,0.6
2017-02-16T05:43:40.556Z,0.6
2017-02-16T05:44:42.865Z,0.6
2017-02-16T05:45:45.864Z,0.6
2017-02-16T05:46:48.329Z,0.7
2017-02-16T05:47:50.790Z,0.7
2017-02-16T05:48:53.266Z,0.7
2017-02-16T05:49:55.395Z,0.7
2017-02-16T05:50:58.396Z,0.7
2017-02-16T05:52:00.837Z,0.7
2017-02-16T05:53:03.313Z,0.6
2017-02-16T05:54:05.617Z,0.6
2017-02-16T05:55:08.081Z,0.6
2017-02-16T05:56:10.548Z,0.6
2017-02-16T05:57:13.516Z,0.6
2017-02-16T05:58:15.987Z,0.6
2017-02-16T05:59:18.323Z,0.6
2017-02-16T06:01:23.216Z,0.6
2017-02-16T06:02:25.680Z,0.6
2017-02-16T06:03:28.146Z,0.6
2017-02-16T06:04:30.605Z,0.6
2017-02-16T06:05:33.570Z,0.6
2017-02-16T06:06:36.033Z,0.6
2017-02-16T06:07:38.506Z,0.6
2017-02-16T06:08:40.976Z,0.6
2017-02-16T06:10:45.846Z,0.6
2017-02-16T06:11:48.139Z,0.6
2017-02-16T06:12:51.104Z,0.6
2017-02-16T06:13:53.566Z,0.6
2017-02-16T06:14:56.042Z,0.6
2017-02-16T06:15:58.525Z,0.6
2017-02-16T06:17:01.026Z,0.6
2017-02-16T06:18:03.495Z,0.6
2017-02-16T06:19:05.991Z,0.6
2017-02-16T06:20:08.450Z,0.6
2017-02-16T06:21:11.449Z,0.6
2017-02-16T06:22:13.258Z,0.6
2017-02-16T06:24:19.179Z,0.6
2017-02-16T06:26:23.548Z,0.6
2017-02-16T06:27:26.031Z,0.6
2017-02-16T06:28:28.531Z,0.6
2017-02-16T06:29:31.535Z,0.6
2017-02-16T06:30:33.511Z,0.6
2017-02-16T06:31:35.840Z,0.6
2017-02-16T06:32:38.308Z,0.6
2017-02-16T06:33:40.784Z,0.6
2017-02-16T06:34:43.770Z,0.6
2017-02-16T06:35:46.261Z,0.6
2017-02-16T06:36:48.552Z,0.6
2017-02-16T06:37:51.016Z,0.6
2017-02-16T06:38:53.488Z,0.6
2017-02-16T06:39:55.974Z,0.6
2017-02-16T06:40:58.465Z,0.6
2017-02-16T06:42:00.946Z,0.6
2017-02-16T06:43:03.414Z,0.6
2017-02-16T06:44:05.717Z,0.6
2017-02-16T06:45:09.221Z,0.6
2017-02-16T06:46:11.179Z,0.6
2017-02-16T06:47:13.651Z,0.6
2017-02-16T06:48:15.945Z,0.6
2017-02-16T06:49:18.252Z,0.6
2017-02-16T06:50:21.243Z,0.7
2017-02-16T06:52:25.956Z,0.7
2017-02-16T06:53:28.766Z,0.7
2017-02-16T06:54:31.075Z,0.7
2017-02-16T06:55:33.547Z,0.7
2017-02-16T06:56:35.857Z,0.8
2017-02-16T06:57:38.651Z,0.8
2017-02-16T06:58:41.121Z,0.8
2017-02-16T06:59:43.587Z,0.8
2017-02-16T07:00:46.065Z,0.8
2017-02-16T07:01:48.537Z,0.8
2017-02-16T07:02:51.503Z,0.8
2017-02-16T07:03:53.978Z,0.8
2017-02-16T07:04:56.452Z,0.8
2017-02-16T07:05:58.920Z,0.8
2017-02-16T07:07:01.390Z,0.8
2017-02-16T07:08:03.853Z,0.8
2017-02-16T07:09:06.335Z,0.8
2017-02-16T07:10:08.812Z,0.8
2017-02-16T07:11:11.271Z,0.8
2017-02-16T07:12:13.744Z,0.9
2017-02-16T07:13:16.217Z,0.9
2017-02-16T07:14:18.677Z,0.9
2017-02-16T07:15:21.643Z,0.9
2017-02-16T07:16:23.999Z,0.9
2017-02-16T07:17:26.478Z,1
2017-02-16T07:18:28.956Z,1
2017-02-16T07:19:31.252Z,1
2017-02-16T07:20:34.231Z,1
2017-02-16T07:21:36.701Z,1
2017-02-16T07:22:39.002Z,1
2017-02-16T07:23:41.470Z,1
2017-02-16T07:24:43.935Z,1
2017-02-16T07:25:46.401Z,1
2017-02-16T07:26:49.372Z,1
2017-02-16T07:27:51.863Z,1.1
2017-02-16T07:28:54.342Z,1.1
2017-02-16T07:29:56.817Z,1.1
2017-02-16T07:32:01.692Z,1.1
2017-02-16T07:33:03.996Z,1.1
2017-02-16T07:34:06.981Z,1.1
2017-02-16T07:35:09.274Z,1.1
2017-02-16T07:36:12.079Z,1.1
2017-02-16T07:37:14.548Z,1.1
2017-02-16T07:38:17.029Z,1.2
2017-02-16T07:39:20.020Z,1.2
2017-02-16T07:40:21.996Z,1.2
2017-02-16T07:41:24.474Z,1.2
2017-02-16T07:41:54.733Z,1.2
2017-02-16T07:42:27.004Z,1.2
2017-02-16T07:43:29.485Z,1.3
2017-02-16T07:44:31.953Z,1.3
2017-02-16T07:45:34.437Z,1.3
2017-02-16T07:46:36.924Z,1.3
2017-02-16T07:47:39.727Z,1.3
2017-02-16T07:48:42.189Z,1.3
2017-02-16T07:49:44.659Z,1.3
2017-02-16T07:50:47.116Z,1.4
2017-02-16T07:51:49.593Z,1.4
2017-02-16T07:52:52.567Z,1.4
2017-02-16T07:53:55.577Z,1.4
2017-02-16T07:54:57.551Z,1.5
2017-02-16T07:55:59.693Z,1.5
2017-02-16T07:57:02.660Z,1.5
2017-02-16T07:58:05.132Z,1.5
2017-02-16T07:59:07.426Z,1.5
2017-02-16T08:00:09.898Z,1.5
2017-02-16T08:01:12.400Z,1.5
2017-02-16T08:02:15.375Z,1.5
2017-02-16T08:04:20.255Z,1.5
2017-02-16T08:05:22.732Z,1.6
2017-02-16T08:06:25.193Z,1.6
2017-02-16T08:07:27.671Z,1.6
2017-02-16T08:08:30.131Z,1.6
2017-02-16T08:09:33.103Z,1.6
2017-02-16T08:10:36.111Z,1.6
2017-02-16T08:11:38.105Z,1.6
2017-02-16T08:12:40.574Z,1.6
2017-02-16T08:13:43.042Z,1.6
2017-02-16T08:14:46.065Z,1.6
2017-02-16T08:15:48.033Z,1.6
2017-02-16T08:16:50.506Z,1.7
2017-02-16T08:17:54.001Z,1.7
2017-02-16T08:18:55.987Z,1.7
2017-02-16T08:19:58.458Z,1.7
2017-02-16T08:21:00.927Z,1.7
2017-02-16T08:22:03.390Z,1.8
2017-02-16T08:23:05.694Z,1.8
2017-02-16T08:24:08.679Z,1.8
2017-02-16T08:25:11.181Z,1.8
2017-02-16T08:26:14.166Z,1.8
2017-02-16T08:27:15.959Z,1.8
2017-02-16T08:28:18.934Z,1.8
2017-02-16T08:29:21.394Z,1.8
2017-02-16T08:30:23.863Z,1.9
2017-02-16T08:31:26.865Z,2
2017-02-16T08:32:28.829Z,2
2017-02-16T08:33:31.292Z,2
2017-02-16T08:34:34.260Z,1.9
2017-02-16T08:35:36.727Z,2
2017-02-16T08:36:39.247Z,2
2017-02-16T08:37:42.241Z,2
2017-02-16T08:38:44.207Z,2
2017-02-16T08:39:46.514Z,2
2017-02-16T08:40:50.028Z,2
2017-02-16T08:41:51.992Z,2
2017-02-16T08:42:54.992Z,2
2017-02-16T08:43:56.953Z,2
2017-02-16T08:44:59.424Z,2
2017-02-16T08:46:01.725Z,2
2017-02-16T08:48:07.109Z,2
2017-02-16T08:49:09.418Z,2.1
2017-02-16T08:50:12.214Z,2
2017-02-16T08:51:14.676Z,2
2017-02-16T08:52:17.636Z,2
2017-02-16T08:53:20.124Z,2
2017-02-16T08:54:22.596Z,2
2017-02-16T08:55:25.069Z,2
2017-02-16T08:56:27.550Z,2
2017-02-16T08:57:30.021Z,2
2017-02-16T08:58:32.998Z,1.9
2017-02-16T08:59:35.503Z,1.9
2017-02-16T09:00:37.974Z,1.9
2017-02-16T09:01:40.462Z,1.9
2017-02-16T09:02:42.924Z,1.9
2017-02-16T09:03:45.226Z,1.9
2017-02-16T09:04:48.197Z,1.9
2017-02-16T09:05:50.664Z,1.9
2017-02-16T09:06:53.139Z,1.9
2017-02-16T09:07:55.628Z,2
2017-02-16T09:08:58.600Z,1.9
2017-02-16T09:10:00.898Z,2
2017-02-16T09:11:03.391Z,2
2017-02-16T09:12:05.688Z,1.9
2017-02-16T09:13:08.487Z,1.9
2017-02-16T09:14:10.971Z,2
2017-02-16T09:15:14.478Z,2
2017-02-16T09:16:16.450Z,1.9
2017-02-16T09:17:18.943Z,2
2017-02-16T09:18:21.420Z,2
2017-02-16T09:19:23.885Z,2
2017-02-16T09:20:26.362Z,2
2017-02-16T09:21:28.834Z,2
2017-02-16T09:22:31.824Z,2
2017-02-16T09:23:34.292Z,2
2017-02-16T09:24:36.766Z,2
2017-02-16T09:25:39.239Z,2
2017-02-16T09:26:41.723Z,2
2017-02-16T09:27:44.542Z,2
2017-02-16T09:28:47.006Z,2
2017-02-16T09:29:49.483Z,2
2017-02-16T09:30:51.962Z,2
2017-02-16T09:31:54.434Z,2
2017-02-16T09:32:57.257Z,2
2017-02-16T09:33:59.727Z,2
2017-02-16T09:35:02.217Z,2
2017-02-16T09:36:05.021Z,2.1
2017-02-16T09:37:07.351Z,2.1
2017-02-16T09:38:09.644Z,2.1
2017-02-16T09:39:12.439Z,2.1
2017-02-16T09:40:15.252Z,2.1
2017-02-16T09:41:17.763Z,2.1
2017-02-16T09:42:20.773Z,2.1
2017-02-16T09:43:22.775Z,2.1
2017-02-16T09:44:25.243Z,2.1
2017-02-16T09:45:27.733Z,2.1
2017-02-16T09:46:30.731Z,2.1
2017-02-16T09:47:33.234Z,2.1
2017-02-16T09:49:38.633Z,2.1
2017-02-16T09:50:40.593Z,2.1
2017-02-16T09:51:43.572Z,2.1
2017-02-16T09:52:46.030Z,2.1
2017-02-16T09:53:49.061Z,2.1
2017-02-16T09:54:51.029Z,2.1
2017-02-16T09:55:53.521Z,2.1
2017-02-16T09:56:55.986Z,2.2
2017-02-16T09:57:58.289Z,2.2
2017-02-16T09:59:01.105Z,2.2
2017-02-16T10:00:03.592Z,2.2
2017-02-16T10:01:06.413Z,2.3
2017-02-16T10:02:08.706Z,2.3
2017-02-16T10:03:11.582Z,2.3
2017-02-16T10:04:13.879Z,2.3
2017-02-16T10:06:19.253Z,2.3
2017-02-16T10:07:21.736Z,2.3
2017-02-16T10:08:24.542Z,2.3
2017-02-16T10:09:27.017Z,2.3
2017-02-16T10:10:29.500Z,2.3
2017-02-16T10:11:31.804Z,2.3
2017-02-16T10:12:34.767Z,2.3
2017-02-16T10:13:37.250Z,2.3
2017-02-16T10:14:40.258Z,2.3
2017-02-16T10:15:42.226Z,2.3
2017-02-16T10:16:44.697Z,2.3
2017-02-16T10:17:46.998Z,2.4
2017-02-16T10:18:49.828Z,2.4
2017-02-16T10:19:52.135Z,2.4
2017-02-16T10:20:55.632Z,2.4
2017-02-16T10:23:09.719Z,2.4
2017-02-16T10:24:02.981Z,2.5
2017-02-16T10:25:05.460Z,2.5
2017-02-16T10:26:07.918Z,2.5
2017-02-16T10:27:10.718Z,2.5
2017-02-16T10:28:13.193Z,2.5
2017-02-16T10:29:15.679Z,2.5
2017-02-16T10:30:18.149Z,2.5
2017-02-16T10:31:20.886Z,2.5
2017-02-16T10:32:23.348Z,2.5
2017-02-16T10:33:25.814Z,2.5
2017-02-16T10:34:28.828Z,2.6
2017-02-16T10:35:30.790Z,2.6
2017-02-16T10:36:33.774Z,2.6
2017-02-16T10:37:36.236Z,2.6
2017-02-16T10:38:38.708Z,2.6
2017-02-16T10:39:41.168Z,2.6
2017-02-16T10:40:43.639Z,2.6
2017-02-16T10:41:46.615Z,2.6
2017-02-16T10:42:49.095Z,2.6
2017-02-16T10:43:51.567Z,2.6
2017-02-16T10:44:54.034Z,2.7
2017-02-16T10:48:01.828Z,2.7
2017-02-16T10:49:04.308Z,2.7
2017-02-16T10:50:07.020Z,2.7
2017-02-16T10:51:09.317Z,2.7
2017-02-16T10:52:12.122Z,2.7
2017-02-16T10:53:14.936Z,2.8
2017-02-16T10:54:17.410Z,2.8
2017-02-16T10:55:19.874Z,2.8
2017-02-16T10:56:22.357Z,2.8
2017-02-16T10:57:24.817Z,2.8
2017-02-16T10:58:27.797Z,2.8
2017-02-16T10:59:30.281Z,2.8
2017-02-16T11:00:32.796Z,3
2017-02-16T11:01:35.803Z,3
2017-02-16T11:02:37.769Z,3
2017-02-16T11:03:40.241Z,3
2017-02-16T11:04:43.218Z,3
2017-02-16T11:06:47.974Z,3
2017-02-16T11:07:50.938Z,3
2017-02-16T11:08:53.453Z,3
2017-02-16T11:09:55.934Z,3
2017-02-16T11:10:58.419Z,3
2017-02-16T11:12:00.913Z,3
2017-02-16T11:13:03.374Z,3
2017-02-16T11:14:06.176Z,3.1
2017-02-16T11:16:11.557Z,3.1
2017-02-16T11:17:14.039Z,3.1
2017-02-16T11:18:16.501Z,3.1
2017-02-16T11:19:18.965Z,3.1
2017-02-16T11:20:21.440Z,3.1
2017-02-16T11:21:24.938Z,3.1
2017-02-16T11:22:26.910Z,3.1
2017-02-16T11:23:29.371Z,3.1
2017-02-16T11:24:31.844Z,3.1
2017-02-16T11:25:34.307Z,3.1
2017-02-16T11:26:37.304Z,3.3
2017-02-16T11:27:39.765Z,3.3
2017-02-16T11:28:42.245Z,3.3
2017-02-16T11:29:44.707Z,3.3
2017-02-16T11:30:47.040Z,3.3
2017-02-16T11:31:50.002Z,3.3
2017-02-16T11:32:52.485Z,3.3
2017-02-16T11:33:54.965Z,3.3
2017-02-16T11:34:57.765Z,3.3
2017-02-16T11:36:00.227Z,3.3
2017-02-16T11:37:02.700Z,3.3
2017-02-16T11:38:05.522Z,3.3
2017-02-16T11:39:08.004Z,3.3
2017-02-16T11:40:10.473Z,3.4
2017-02-16T11:41:13.466Z,3.4
2017-02-16T11:42:15.927Z,3.5
2017-02-16T11:43:18.403Z,3.5
2017-02-16T11:44:20.894Z,3.5
2017-02-16T11:45:23.893Z,3.5
2017-02-16T11:47:28.766Z,3.5
2017-02-16T11:48:31.238Z,3.4
2017-02-16T11:49:33.705Z,3.5
2017-02-16T11:50:36.677Z,3.5
2017-02-16T11:51:39.145Z,3.6
2017-02-16T11:52:41.620Z,3.6
2017-02-16T11:53:44.084Z,3.6
2017-02-16T11:54:47.067Z,3.6
2017-02-16T11:55:49.535Z,3.6
2017-02-16T11:56:52.003Z,3.6
2017-02-16T11:57:54.997Z,3.6
2017-02-16T11:58:56.981Z,3.6
2017-02-16T11:59:59.952Z,3.7
2017-02-16T12:01:02.435Z,3.6
2017-02-16T12:02:04.902Z,3.6
2017-02-16T12:03:07.384Z,3.6
2017-02-16T12:04:09.872Z,3.6
2017-02-16T12:05:12.846Z,3.6
2017-02-16T12:07:17.712Z,3.6
2017-02-16T12:08:20.203Z,3.6
2017-02-16T12:09:23.173Z,3.6
2017-02-16T12:10:25.652Z,3.6
2017-02-16T12:11:28.113Z,3.6
2017-02-16T12:12:30.609Z,3.7
2017-02-16T12:13:33.589Z,3.7
2017-02-16T12:14:36.055Z,3.7
2017-02-16T12:15:38.520Z,3.7
2017-02-16T12:16:41.023Z,3.7
2017-02-16T12:17:44.011Z,3.8
2017-02-16T12:18:47.026Z,3.8
2017-02-16T12:19:49.000Z,3.8
2017-02-16T12:20:51.478Z,3.7
2017-02-16T12:21:53.941Z,3.8
2017-02-16T12:22:57.445Z,3.8
2017-02-16T12:23:59.422Z,3.8
2017-02-16T12:25:01.717Z,3.8
2017-02-16T12:26:04.523Z,3.8
2017-02-16T12:27:07.369Z,3.8
2017-02-16T12:28:09.830Z,3.8
2017-02-16T12:29:12.291Z,3.8
2017-02-16T12:30:14.618Z,3.8
2017-02-16T12:31:17.588Z,3.8
2017-02-16T12:32:20.086Z,3.8
2017-02-16T12:33:22.550Z,3.9
2017-02-16T12:34:25.545Z,4
2017-02-16T12:35:27.526Z,4
2017-02-16T12:36:30.536Z,4
2017-02-16T12:37:33.002Z,4
2017-02-16T12:38:35.488Z,3.9
2017-02-16T12:39:37.963Z,3.9
2017-02-16T12:40:40.949Z,4
2017-02-16T12:41:43.413Z,4
2017-02-16T12:42:45.546Z,4
2017-02-16T12:43:48.502Z,4
2017-02-16T12:44:50.962Z,4
2017-02-16T12:45:53.417Z,4
2017-02-16T12:46:56.387Z,4
2017-02-16T12:47:58.841Z,4
2017-02-16T12:49:01.309Z,4
2017-02-16T12:50:04.108Z,4.1
2017-02-16T12:51:06.405Z,4.1
2017-02-16T12:52:09.385Z,4.1
2017-02-16T12:53:11.855Z,4.1
2017-02-16T12:54:14.014Z,4.1
2017-02-16T12:55:16.818Z,4.1
2017-02-16T12:56:19.611Z,4.1
2017-02-16T12:57:22.080Z,4.1
2017-02-16T12:58:25.068Z,4.1
2017-02-16T12:59:27.536Z,4.2
2017-02-16T13:00:30.014Z,4.1
2017-02-16T13:01:32.484Z,4.2
2017-02-16T13:02:34.958Z,4.2
2017-02-16T13:03:37.925Z,4.2
2017-02-16T13:04:40.386Z,4.2
2017-02-16T13:05:42.852Z,4.2
2017-02-16T13:06:45.851Z,4.2
2017-02-16T13:07:48.328Z,4.2
2017-02-16T13:08:50.794Z,4.3
2017-02-16T13:09:53.261Z,4.4
2017-02-16T13:10:55.743Z,4.4
2017-02-16T13:11:58.711Z,4.3
2017-02-16T13:13:01.173Z,4.4
2017-02-16T13:14:03.642Z,4.3
2017-02-16T13:15:06.105Z,4.3
2017-02-16T13:16:09.064Z,4.4
2017-02-16T13:17:11.552Z,4.4
2017-02-16T13:18:14.877Z,4.4
2017-02-16T13:19:16.663Z,4.5
2017-02-16T13:20:19.119Z,4.5
2017-02-16T13:21:21.914Z,4.5
2017-02-16T13:22:24.202Z,4.5
2017-02-16T13:23:27.717Z,4.5
2017-02-16T13:24:29.670Z,4.5
2017-02-16T13:25:32.126Z,4.5
2017-02-16T13:26:34.922Z,4.5
2017-02-16T13:27:37.381Z,4.4
2017-02-16T13:28:40.347Z,4.4
2017-02-16T13:29:42.803Z,4.5
2017-02-16T13:30:45.275Z,4.5
2017-02-16T13:32:50.635Z,4.4
2017-02-16T13:33:53.096Z,4.4
2017-02-16T13:34:55.565Z,4.5
2017-02-16T13:35:58.526Z,4.5
2017-02-16T13:37:01.011Z,4.5
2017-02-16T13:38:03.324Z,4.5
2017-02-16T13:40:08.687Z,4.5
2017-02-16T13:41:10.984Z,4.5
2017-02-16T13:42:13.630Z,4.5
2017-02-16T13:43:16.588Z,4.5
2017-02-16T13:44:19.043Z,4.5
2017-02-16T13:46:24.410Z,4.5
2017-02-16T13:47:27.039Z,4.5
2017-02-16T13:48:29.494Z,4.5
2017-02-16T13:49:32.454Z,4.5
2017-02-16T13:50:34.923Z,4.5
2017-02-16T13:51:37.405Z,4.5
2017-02-16T13:52:39.705Z,4.5
2017-02-16T13:53:43.210Z,4.5
2017-02-16T13:54:45.711Z,4.5
2017-02-16T13:55:47.682Z,4.6
2017-02-16T13:56:50.665Z,4.6
2017-02-16T13:57:53.125Z,4.6
2017-02-16T13:58:55.743Z,4.6
2017-02-16T13:59:58.196Z,4.6
2017-02-16T14:01:00.661Z,4.6
2017-02-16T14:02:03.641Z,4.6
2017-02-16T14:03:05.931Z,4.6
2017-02-16T14:04:08.892Z,4.6
2017-02-16T14:06:14.103Z,4.6
2017-02-16T14:07:16.923Z,4.6
2017-02-16T14:08:18.883Z,4.6
2017-02-16T14:09:21.839Z,4.6
2017-02-16T14:10:24.304Z,4.6
2017-02-16T14:11:26.952Z,4.6
2017-02-16T14:12:29.420Z,4.7
2017-02-16T14:13:31.889Z,4.7
2017-02-16T14:14:34.855Z,4.7
2017-02-16T14:15:37.369Z,4.8
2017-02-16T14:16:39.828Z,4.8
2017-02-16T14:17:42.300Z,4.8
2017-02-16T14:18:45.261Z,4.8
2017-02-16T14:19:47.725Z,4.8
2017-02-16T14:20:50.183Z,4.8
2017-02-16T14:21:53.151Z,4.8
2017-02-16T14:22:55.608Z,4.8
2017-02-16T14:23:57.911Z,4.8
2017-02-16T14:25:00.883Z,4.8
2017-02-16T14:26:03.342Z,4.8
2017-02-16T14:27:05.803Z,4.8
2017-02-16T14:28:08.429Z,4.9
2017-02-16T14:29:10.898Z,4.9
2017-02-16T14:30:13.689Z,4.9
2017-02-16T14:31:16.150Z,4.9
2017-02-16T14:32:19.116Z,4.9
2017-02-16T14:33:21.411Z,4.9
2017-02-16T14:34:24.378Z,4.9
2017-02-16T14:35:26.848Z,4.9
2017-02-16T14:36:29.304Z,4.9
2017-02-16T14:37:31.778Z,4.9
2017-02-16T14:38:34.585Z,4.9
2017-02-16T14:39:37.057Z,4.9
2017-02-16T14:40:40.019Z,4.9
2017-02-16T14:41:42.496Z,5
2017-02-16T14:42:44.954Z,5
2017-02-16T14:43:47.756Z,5.1
2017-02-16T14:44:50.214Z,5.1
2017-02-16T14:45:53.015Z,5.1
2017-02-16T14:46:55.307Z,5
2017-02-16T14:47:58.125Z,5
2017-02-16T14:49:00.588Z,5
2017-02-16T14:50:03.061Z,5
2017-02-16T14:51:05.867Z,5
2017-02-16T14:52:07.997Z,5
2017-02-16T14:53:11.500Z,5
2017-02-16T14:54:13.308Z,5
2017-02-16T14:55:16.266Z,5
2017-02-16T14:56:18.735Z,5
2017-02-16T14:57:21.706Z,5
2017-02-16T14:58:24.171Z,5
2017-02-16T14:59:26.623Z,5
2017-02-16T15:00:29.076Z,5
2017-02-16T15:01:32.580Z,5.1
2017-02-16T15:02:34.559Z,5.1
2017-02-16T15:03:37.020Z,5.1
2017-02-16T15:04:39.998Z,5.1
2017-02-16T15:05:42.458Z,5
2017-02-16T15:06:44.935Z,5
2017-02-16T15:07:47.239Z,5.1
2017-02-16T15:08:50.220Z,5.1
2017-02-16T15:09:52.677Z,5.1
2017-02-16T15:10:55.160Z,5.1
2017-02-16T15:11:58.113Z,5.1
2017-02-16T15:13:00.568Z,5.1
2017-02-16T15:14:03.027Z,5.1
2017-02-16T15:16:08.936Z,5.1
2017-02-16T15:17:10.897Z,5.1
2017-02-16T15:18:13.224Z,5.1
2017-02-16T15:19:16.224Z,5.1
2017-02-16T15:20:19.024Z,5.1
2017-02-16T15:21:21.479Z,5.1
2017-02-16T15:22:23.767Z,5.1
2017-02-16T15:23:26.731Z,5.1
2017-02-16T15:24:29.024Z,5.1
2017-02-16T15:25:31.990Z,5.2
2017-02-16T15:26:34.453Z,5.1
2017-02-16T15:27:36.918Z,5.2
2017-02-16T15:28:39.879Z,5.1
2017-02-16T15:29:42.342Z,5.1
2017-02-16T15:30:44.644Z,5.2
2017-02-16T15:31:47.443Z,5.2
2017-02-16T15:32:49.900Z,5.2
2017-02-16T15:33:52.865Z,5.1
2017-02-16T15:34:55.332Z,5.1
2017-02-16T15:35:57.796Z,5.2
2017-02-16T15:37:00.604Z,5.2
2017-02-16T15:39:05.465Z,5.2
2017-02-16T15:40:08.267Z,5.2
2017-02-16T15:41:11.056Z,5.2
2017-02-16T15:42:13.517Z,5.2
2017-02-16T15:43:15.969Z,5.2
2017-02-16T15:44:18.932Z,5.1
2017-02-16T15:45:21.418Z,5.2
2017-02-16T15:46:23.718Z,5.1
2017-02-16T15:47:26.695Z,5.2
2017-02-16T15:48:28.996Z,5.2
2017-02-16T15:49:31.975Z,5.2
2017-02-16T15:50:34.265Z,5.3
2017-02-16T15:51:36.735Z,5.3
2017-02-16T15:52:40.231Z,5.3
2017-02-16T15:53:42.205Z,5.3
2017-02-16T15:54:44.667Z,5.3
2017-02-16T15:55:46.956Z,5.2
2017-02-16T15:56:49.922Z,5.3
2017-02-16T15:57:52.392Z,5.3
2017-02-16T15:58:55.352Z,5.2
2017-02-16T15:59:57.806Z,5.2
2017-02-16T16:02:03.170Z,5.3
2017-02-16T16:03:05.631Z,5.2
2017-02-16T16:04:08.101Z,5.2
2017-02-16T16:05:10.398Z,5.3
2017-02-16T16:06:13.388Z,5.3
2017-02-16T16:07:15.865Z,5.3
2017-02-16T16:08:18.832Z,5.3
2017-02-16T16:09:21.303Z,5.2
2017-02-16T16:10:23.600Z,5.2
2017-02-16T16:11:26.468Z,5.2
2017-02-16T16:12:28.942Z,5.3
2017-02-16T16:13:31.434Z,5.2
2017-02-16T16:14:34.413Z,5.3
2017-02-16T16:15:36.880Z,5.3
2017-02-16T16:16:39.346Z,5.3
2017-02-16T16:17:41.805Z,5.3
2017-02-16T16:18:44.775Z,5.2
2017-02-16T16:19:47.253Z,5.2
2017-02-16T16:20:49.732Z,5.2
2017-02-16T16:21:52.187Z,5.2
2017-02-16T16:22:54.992Z,5.2
2017-02-16T16:23:57.814Z,5.2
2017-02-16T16:25:00.269Z,5.2
2017-02-16T16:26:03.253Z,5.2
2017-02-16T16:27:05.737Z,5.3
2017-02-16T16:28:08.198Z,5.3
2017-02-16T16:29:10.686Z,5.3
2017-02-16T16:31:15.900Z,5.3
2017-02-16T16:32:18.206Z,5.3
2017-02-16T16:33:21.172Z,5.3
2017-02-16T16:34:23.656Z,5.2
2017-02-16T16:35:26.110Z,5.3
2017-02-16T16:36:29.073Z,5.2
2017-02-16T16:37:31.529Z,5.2
2017-02-16T16:38:33.834Z,5.2
2017-02-16T16:40:39.231Z,5.2
2017-02-16T16:41:41.697Z,5.2
2017-02-16T16:42:44.499Z,5.2
2017-02-16T16:43:46.955Z,5.2
2017-02-16T16:44:49.410Z,5.3
2017-02-16T16:45:52.386Z,5.3
2017-02-16T16:46:54.843Z,5.3
2017-02-16T16:47:57.301Z,5.3
2017-02-16T16:49:00.271Z,5.3
2017-02-16T16:50:02.741Z,5.3
2017-02-16T16:51:05.039Z,5.3
2017-02-16T16:52:07.832Z,5.3
2017-02-16T16:53:10.626Z,5.3
2017-02-16T16:54:12.918Z,5.3
2017-02-16T16:55:15.388Z,5.3
2017-02-16T16:57:20.757Z,5.3
2017-02-16T16:58:23.230Z,5.3
2017-02-16T16:59:26.208Z,5.2
2017-02-16T17:00:28.662Z,5.3
2017-02-16T17:01:31.679Z,5.3
2017-02-16T17:02:33.646Z,5.3
2017-02-16T17:03:36.617Z,5.3
2017-02-16T17:04:39.073Z,5.3
2017-02-16T17:05:41.447Z,5.3
2017-02-16T17:06:44.419Z,5.3
2017-02-16T17:07:46.875Z,5.3
2017-02-16T17:08:49.343Z,5.3
2017-02-16T17:09:51.801Z,5.3
2017-02-16T17:10:54.766Z,5.3
2017-02-16T17:11:57.060Z,5.3
2017-02-16T17:13:00.039Z,5.3
2017-02-16T17:14:02.509Z,5.3
2017-02-16T17:15:04.995Z,5.3
2017-02-16T17:16:07.289Z,5.3
2017-02-16T17:17:10.152Z,5.3
2017-02-16T17:18:12.451Z,5.3
2017-02-16T17:19:15.099Z,5.3